createdAt,value
2022-09-03T00:00:02.277Z,99928.09
2022-09-03T00:02:35.376Z,99924.16
2022-09-03T00:05:05.469Z,99924.75
2022-09-03T00:07:39.749Z,99924.34
2022-09-03T00:10:12.005Z,99917.59
2022-09-03T00:12:44.105Z,99928.56
2022-09-03T00:15:10.689Z,99914.50
2022-09-03T00:17:40.023Z,99918.16
2022-09-03T00:20:28.488Z,99907.75
2022-09-03T00:22:57.183Z,99910.56
2022-09-03T00:25:26.796Z,99898.38
2022-09-03T00:27:56.929Z,99907.34
2022-09-03T00:30:24.564Z,99907.50
2022-09-03T00:32:59.435Z,99907.66
2022-09-03T00:35:42.291Z,99898.22
2022-09-03T00:38:09.103Z,99911.03
2022-09-03T00:40:35.588Z,99906.78
2022-09-03T00:43:05.057Z,99902.56
2022-09-03T00:45:57.582Z,99898.34
2022-09-03T00:48:27.873Z,99896.78
2022-09-03T00:51:29.421Z,99889.06
2022-09-03T00:53:55.878Z,99884.88
2022-09-03T00:56:22.463Z,99888.78
2022-09-03T00:58:58.401Z,99884.56
2022-09-03T01:01:43.918Z,99885.03
2022-09-03T01:04:21.803Z,99880.81
2022-09-03T01:06:54.829Z,99874.03
2022-09-03T01:09:39.918Z,99877.13
2022-09-03T01:12:16.257Z,99875.75
2022-09-03T01:14:42.922Z,99873.38
2022-09-03T01:17:09.345Z,99870.09
2022-09-03T01:19:38.917Z,99870.38
2022-09-03T01:22:24.650Z,99874.34
2022-09-03T01:24:51.314Z,99867.59
2022-09-03T01:27:26.593Z,99866.03
2022-09-03T01:30:04.157Z,99863.66
2022-09-03T01:32:39.840Z,99863.94
2022-09-03T01:35:24.422Z,99862.38
2022-09-03T01:37:58.281Z,99866.31
2022-09-03T01:40:47.976Z,99862.94
2022-09-03T01:43:23.354Z,99860.53
2022-09-03T01:46:00.754Z,99874.16
2022-09-03T01:48:27.361Z,99865.59
2022-09-03T01:51:12.547Z,99866.00
2022-09-03T01:53:39.345Z,99861.78
2022-09-03T01:56:15.186Z,99854.75
2022-09-03T01:59:07.246Z,99857.56
2022-09-03T02:01:36.739Z,99856.00
2022-09-03T02:04:14.251Z,99859.78
2022-09-03T02:06:41.098Z,99862.72
2022-09-03T02:09:07.615Z,99862.84
2022-09-03T02:11:34.401Z,99863.84
2022-09-03T02:14:00.947Z,99867.63
2022-09-03T02:16:31.719Z,99867.75
2022-09-03T02:18:59.861Z,99867.19
2022-09-03T02:21:28.407Z,99870.97
2022-09-03T02:23:55.064Z,99877.41
2022-09-03T02:26:23.893Z,99881.06
2022-09-03T02:28:51.460Z,99879.50
2022-09-03T02:31:17.962Z,99886.94
2022-09-03T02:33:46.381Z,99886.19
2022-09-03T02:36:14.412Z,99882.00
2022-09-03T02:38:44.814Z,99882.13
2022-09-03T02:41:15.246Z,99882.25
2022-09-03T02:43:41.748Z,99889.53
2022-09-03T02:46:10.220Z,99883.50
2022-09-03T02:48:37.173Z,99883.50
2022-09-03T02:51:13.726Z,99891.63
2022-09-03T02:53:41.666Z,99895.25
2022-09-03T02:56:08.153Z,99890.06
2022-09-03T02:58:35.212Z,99892.72
2022-09-03T03:01:01.950Z,99901.72
2022-09-03T03:03:28.946Z,99897.50
2022-09-03T03:05:56.681Z,99895.69
2022-09-03T03:08:25.877Z,99891.19
2022-09-03T03:10:53.505Z,99894.69
2022-09-03T03:13:20.050Z,99883.91
2022-09-03T03:15:47.967Z,99881.09
2022-09-03T03:18:14.901Z,99886.16
2022-09-03T03:20:42.150Z,99893.06
2022-09-03T03:23:08.836Z,99889.53
2022-09-03T03:25:36.646Z,99885.19
2022-09-03T03:28:04.281Z,99887.13
2022-09-03T03:30:31.186Z,99892.72
2022-09-03T03:32:57.752Z,99877.03
2022-09-03T03:35:24.444Z,99881.91
2022-09-03T03:37:51.196Z,99878.53
2022-09-03T03:40:17.855Z,99872.63
2022-09-03T03:42:44.352Z,99878.22
2022-09-03T03:45:11.178Z,99870.25
2022-09-03T03:47:37.903Z,99865.88
2022-09-03T03:50:05.180Z,99866.84
2022-09-03T03:52:31.780Z,99860.53
2022-09-03T03:54:58.237Z,99863.91
2022-09-03T03:57:24.769Z,99859.44
2022-09-03T03:59:51.322Z,99867.56
2022-09-03T04:02:18.240Z,99864.03
2022-09-03T04:04:44.976Z,99867.72
2022-09-03T04:07:11.753Z,99860.94
2022-09-03T04:09:38.825Z,99868.38
2022-09-03T04:12:08.797Z,99861.59
2022-09-03T04:14:35.702Z,99849.25
2022-09-03T04:17:03.187Z,99854.72
2022-09-03T04:19:30.314Z,99855.84
2022-09-03T04:21:57.289Z,99855.97
2022-09-03T04:24:24.118Z,99855.25
2022-09-03T04:26:50.689Z,99858.19
2022-09-03T04:29:18.548Z,99861.81
2022-09-03T04:32:05.045Z,99865.31
2022-09-03T04:34:31.693Z,99854.81
2022-09-03T04:36:59.206Z,99850.59
2022-09-03T04:39:26.377Z,99856.06
2022-09-03T04:41:53.067Z,99848.06
2022-09-03T04:44:19.582Z,99851.56
2022-09-03T04:46:47.977Z,99842.47
2022-09-03T04:49:15.222Z,99848.50
2022-09-03T04:51:41.976Z,99838.69
2022-09-03T04:54:10.374Z,99835.06
2022-09-03T04:56:38.679Z,99836.88
2022-09-03T04:59:06.246Z,99831.56
2022-09-03T05:01:33.659Z,99837.84
2022-09-03T05:04:00.851Z,99843.19
2022-09-03T05:06:28.487Z,99847.94
2022-09-03T05:08:55.639Z,99846.38
2022-09-03T05:11:22.779Z,99847.59
2022-09-03T05:13:53.832Z,99854.03
2022-09-03T05:16:21.054Z,99862.97
2022-09-03T05:18:48.149Z,99856.94
2022-09-03T05:21:15.817Z,99847.13
2022-09-03T05:23:43.540Z,99858.72
2022-09-03T05:26:11.297Z,99856.94
2022-09-03T05:28:39.288Z,99856.94
2022-09-03T05:31:07.646Z,99847.13
2022-09-03T05:33:35.784Z,99851.47
2022-09-03T05:36:03.249Z,99854.97
2022-09-03T05:38:30.157Z,99855.59
2022-09-03T05:41:00.829Z,99848.19
2022-09-03T05:43:28.055Z,99847.94
2022-09-03T05:46:01.091Z,99855.66
2022-09-03T05:48:29.141Z,99862.78
2022-09-03T05:51:02.349Z,99860.13
2022-09-03T05:53:29.530Z,99863.66
2022-09-03T05:55:59.684Z,99860.84
2022-09-03T05:58:30.654Z,99856.22
2022-09-03T06:00:57.295Z,99857.91
2022-09-03T06:03:24.115Z,99856.81
2022-09-03T06:05:54.833Z,99858.50
2022-09-03T06:08:22.306Z,99855.72
2022-09-03T06:10:48.830Z,99858.25
2022-09-03T06:13:15.625Z,99857.25
2022-09-03T06:15:42.246Z,99868.50
2022-09-03T06:18:08.731Z,99863.75
2022-09-03T06:20:37.288Z,99857.19
2022-09-03T06:23:04.243Z,99866.72
2022-09-03T06:25:32.009Z,99863.78
2022-09-03T06:27:59.450Z,99872.38
2022-09-03T06:30:27.303Z,99871.25
2022-09-03T06:32:54.223Z,99870.97
2022-09-03T06:35:20.931Z,99878.72
2022-09-03T06:37:47.510Z,99873.09
2022-09-03T06:40:14.281Z,99864.00
2022-09-03T06:42:41.625Z,99878.88
2022-09-03T06:45:12.469Z,99881.28
2022-09-03T06:47:38.969Z,99881.00
2022-09-03T06:50:05.843Z,99876.41
2022-09-03T06:52:32.957Z,99874.31
2022-09-03T06:54:59.475Z,99874.03
2022-09-03T06:57:25.989Z,99880.06
2022-09-03T06:59:54.677Z,99884.41
2022-09-03T07:02:23.067Z,99880.53
2022-09-03T07:04:50.082Z,99882.06
2022-09-03T07:07:16.752Z,99892.59
2022-09-03T07:09:47.755Z,99884.59
2022-09-03T07:12:16.982Z,99886.41
2022-09-03T07:14:43.478Z,99892.59
2022-09-03T07:17:09.937Z,99889.78
2022-09-03T07:19:36.559Z,99893.03
2022-09-03T07:22:03.201Z,99896.28
2022-09-03T07:24:29.788Z,99903.91
2022-09-03T07:26:58.277Z,99904.84
2022-09-03T07:29:24.868Z,99906.28
2022-09-03T07:31:52.211Z,99905.00
2022-09-03T07:34:19.777Z,99907.53
2022-09-03T07:36:49.021Z,99906.59
2022-09-03T07:39:16.540Z,99914.44
2022-09-03T07:41:45.270Z,99907.13
2022-09-03T07:44:19.540Z,99905.75
2022-09-03T07:46:48.190Z,99909.72
2022-09-03T07:49:14.877Z,99909.31
2022-09-03T07:51:41.791Z,99907.06
2022-09-03T07:54:11.078Z,99901.59
2022-09-03T07:56:39.396Z,99904.09
2022-09-03T07:59:06.025Z,99900.31
2022-09-03T08:01:33.408Z,99909.88
2022-09-03T08:04:00.417Z,99914.78
2022-09-03T08:06:28.032Z,99912.53
2022-09-03T08:09:03.690Z,99913.25
2022-09-03T08:11:31.798Z,99916.47
2022-09-03T08:14:02.961Z,99911.69
2022-09-03T08:16:30.810Z,99915.94
2022-09-03T08:18:57.389Z,99912.84
2022-09-03T08:21:24.428Z,99909.75
2022-09-03T08:23:52.174Z,99917.47
2022-09-03T08:26:19.788Z,99923.38
2022-09-03T08:28:46.687Z,99923.78
2022-09-03T08:31:15.119Z,99924.38
2022-09-03T08:33:43.154Z,99930.94
2022-09-03T08:36:17.059Z,99937.59
2022-09-03T08:38:45.580Z,99944.06
2022-09-03T08:41:12.038Z,99941.13
2022-09-03T08:44:03.000Z,99949.69
2022-09-03T08:46:42.200Z,99939.41
2022-09-03T08:49:11.454Z,99936.16
2022-09-03T08:51:40.450Z,99934.59
2022-09-03T08:54:09.362Z,99939.22
2022-09-03T08:56:38.832Z,99939.47
2022-09-03T08:59:05.460Z,99938.06
2022-09-03T09:01:50.790Z,99935.09
2022-09-03T09:04:44.356Z,99929.88
2022-09-03T09:07:13.822Z,99939.13
2022-09-03T09:09:44.189Z,99942.22
2022-09-03T09:12:34.012Z,99938.25
2022-09-03T09:15:07.909Z,99946.69
2022-09-03T09:17:34.494Z,99947.22
2022-09-03T09:20:08.125Z,99946.13
2022-09-03T09:22:42.029Z,99952.00
2022-09-03T09:25:17.108Z,99950.03
2022-09-03T09:28:03.898Z,99953.72
2022-09-03T09:30:31.357Z,99952.84
2022-09-03T09:32:58.045Z,99952.00
2022-09-03T09:35:25.008Z,99952.69
2022-09-03T09:37:55.861Z,99957.63
2022-09-03T09:40:34.053Z,99947.00
2022-09-03T09:43:09.866Z,99943.28
2022-09-03T09:45:38.336Z,99937.19
2022-09-03T09:48:08.099Z,99939.09
2022-09-03T09:50:34.634Z,99938.81
2022-09-03T09:53:04.393Z,99943.47
2022-09-03T09:55:32.435Z,99937.97
2022-09-03T09:58:05.753Z,99944.69
2022-09-03T10:00:34.877Z,99944.69
2022-09-03T10:03:02.081Z,99942.03
2022-09-03T10:05:31.178Z,99937.69
2022-09-03T10:08:01.865Z,99942.03
2022-09-03T10:10:29.557Z,99934.53
2022-09-03T10:13:02.533Z,99932.09
2022-09-03T10:15:47.999Z,99940.19
2022-09-03T10:18:18.194Z,99926.75
2022-09-03T10:20:51.834Z,99939.94
2022-09-03T10:23:24.194Z,99950.03
2022-09-03T10:26:09.176Z,99950.56
2022-09-03T10:28:41.659Z,99951.41
2022-09-03T10:31:23.818Z,99937.19
2022-09-03T10:33:51.309Z,99933.66
2022-09-03T10:36:18.993Z,99936.19
2022-09-03T10:38:49.044Z,99941.91
2022-09-03T10:41:15.834Z,99936.78
2022-09-03T10:44:06.873Z,99932.94
2022-09-03T10:46:52.374Z,99932.50
2022-09-03T10:49:25.245Z,99937.38
2022-09-03T10:52:09.786Z,99939.59
2022-09-03T10:54:39.388Z,99943.94
2022-09-03T10:57:17.752Z,99947.63
2022-09-03T10:59:59.737Z,99940.13
2022-09-03T11:02:35.694Z,99941.81
2022-09-03T11:05:08.341Z,99945.16
2022-09-03T11:07:37.834Z,99947.53
2022-09-03T11:10:14.176Z,99950.06
2022-09-03T11:12:52.961Z,99946.38
2022-09-03T11:15:26.209Z,99948.22
2022-09-03T11:18:07.805Z,99945.22
2022-09-03T11:20:34.798Z,99946.75
2022-09-03T11:23:03.095Z,99945.44
2022-09-03T11:25:42.197Z,99945.97
2022-09-03T11:28:09.979Z,99951.84
2022-09-03T11:30:51.280Z,99943.31
2022-09-03T11:33:20.124Z,99940.72
2022-09-03T11:35:46.766Z,99939.91
2022-09-03T11:38:21.293Z,99938.94
2022-09-03T11:41:02.422Z,99937.63
2022-09-03T11:43:33.458Z,99940.50
2022-09-03T11:46:05.475Z,99933.44
2022-09-03T11:48:38.150Z,99931.06
2022-09-03T11:51:05.037Z,99925.72
2022-09-03T11:53:35.873Z,99928.06
2022-09-03T11:56:06.212Z,99926.59
2022-09-03T11:58:34.775Z,99929.16
2022-09-03T12:01:02.797Z,99924.81
2022-09-03T12:03:38.227Z,99920.63
2022-09-03T12:06:25.858Z,99926.38
2022-09-03T12:09:06.179Z,99925.69
2022-09-03T12:12:01.710Z,99928.69
2022-09-03T12:14:37.727Z,99928.84
2022-09-03T12:17:10.748Z,99927.84
2022-09-03T12:19:43.195Z,99925.69
2022-09-03T12:22:13.632Z,99925.34
2022-09-03T12:24:42.976Z,99926.88
2022-09-03T12:27:12.950Z,99923.03
2022-09-03T12:29:40.670Z,99919.50
2022-09-03T12:32:09.407Z,99933.78
2022-09-03T12:34:36.337Z,99929.25
2022-09-03T12:37:05.172Z,99930.94
2022-09-03T12:42:22.145Z,99926.41
2022-09-03T12:44:49.203Z,99926.63
2022-09-03T12:47:37.365Z,99926.47
2022-09-03T12:50:10.992Z,99934.50
2022-09-03T12:52:59.597Z,99930.13
2022-09-03T12:55:44.897Z,99924.59
2022-09-03T12:58:25.212Z,99933.81
2022-09-03T13:00:56.510Z,99932.81
2022-09-03T13:03:29.363Z,99931.63
2022-09-03T13:06:04.466Z,99933.31
2022-09-03T13:08:34.159Z,99924.44
2022-09-03T13:11:06.098Z,99930.13
2022-09-03T13:13:34.034Z,99929.47
2022-09-03T13:16:09.946Z,99932.47
2022-09-03T13:19:02.990Z,99924.22
2022-09-03T13:21:29.583Z,99923.03
2022-09-03T13:23:56.398Z,99927.03
2022-09-03T13:29:54.808Z,99938.78
2022-09-03T13:32:24.620Z,99966.09
2022-09-03T13:34:57.559Z,99991.03
2022-09-03T13:37:42.966Z,99975.75
2022-09-03T13:40:23.749Z,99990.69
2022-09-03T13:42:58.710Z,99989.94
2022-09-03T13:45:32.069Z,99991.72
2022-09-03T13:48:19.845Z,99983.91
2022-09-03T13:50:59.963Z,99979.47
2022-09-03T13:53:58.062Z,99980.28
2022-09-03T13:56:27.830Z,99990.06
2022-09-03T13:59:05.112Z,99974.25
2022-09-03T14:02:00.938Z,99980.59
2022-09-03T14:05:03.196Z,99984.97
2022-09-03T14:07:45.125Z,99985.78
2022-09-03T14:10:14.631Z,99979.84
2022-09-03T14:12:47.543Z,99976.03
2022-09-03T14:15:30.637Z,99975.28
2022-09-03T14:18:41.785Z,99983.25
2022-09-03T14:21:17.077Z,99984.31
2022-09-03T14:24:10.611Z,99982.03
2022-09-03T14:26:39.947Z,99986.19
2022-09-03T14:29:13.159Z,99983.56
2022-09-03T14:31:58.022Z,99980.25
2022-09-03T14:34:55.758Z,99986.00
2022-09-03T14:37:59.154Z,99976.97
2022-09-03T14:40:44.281Z,99980.16
2022-09-03T14:43:35.654Z,99985.53
2022-09-03T14:46:08.589Z,99988.25
2022-09-03T14:48:57.230Z,99975.94
2022-09-03T14:51:47.534Z,99974.78
2022-09-03T14:54:49.736Z,99979.38
2022-09-03T14:57:28.869Z,99980.72
2022-09-03T15:00:18.502Z,99975.19
2022-09-03T15:02:52.776Z,99975.25
2022-09-03T15:05:36.898Z,99972.66
2022-09-03T15:08:16.147Z,99974.31
2022-09-03T15:10:55.887Z,99974.88
2022-09-03T15:13:26.272Z,99955.22
2022-09-03T15:16:09.498Z,99969.19
2022-09-03T15:19:08.753Z,99964.28
2022-09-03T15:21:41.444Z,99971.06
2022-09-03T15:24:32.640Z,99969.41
2022-09-03T15:27:14.178Z,99972.81
2022-09-03T15:30:00.544Z,99971.00
2022-09-03T15:32:59.764Z,99970.34
2022-09-03T15:35:44.521Z,99972.19
2022-09-03T15:38:21.646Z,99970.50
2022-09-03T15:40:50.911Z,99966.81
2022-09-03T15:43:32.447Z,99969.69
2022-09-03T15:46:29.961Z,99981.41
2022-09-03T15:49:02.848Z,99971.84
2022-09-03T15:51:59.534Z,99973.72
2022-09-03T15:54:53.211Z,99971.22
2022-09-03T15:57:45.221Z,99976.09
2022-09-03T16:00:16.768Z,99983.34
2022-09-03T16:03:07.458Z,99988.53
2022-09-03T16:05:47.125Z,99968.22
2022-09-03T16:09:01.055Z,99982.63
2022-09-03T16:11:40.698Z,99980.97
2022-09-03T16:14:35.319Z,99976.75
2022-09-03T16:17:28.574Z,99984.50
2022-09-03T16:20:08.369Z,99977.81
2022-09-03T16:22:52.133Z,99979.13
2022-09-03T16:26:08.100Z,99991.13
2022-09-03T16:29:15.326Z,99994.31
2022-09-03T16:32:06.918Z,99995.53
2022-09-03T16:35:21.511Z,100001.06
2022-09-03T16:38:12.995Z,99987.94
2022-09-03T16:40:56.894Z,100003.03
2022-09-03T16:43:59.111Z,100003.63
2022-09-03T16:46:46.875Z,100010.84
2022-09-03T16:49:53.471Z,100015.78
2022-09-03T16:53:18.463Z,100012.69
2022-09-03T16:56:23.957Z,100013.69
2022-09-03T16:59:13.038Z,100018.16
2022-09-03T17:02:23.755Z,100016.09
2022-09-03T17:05:07.440Z,100017.41
2022-09-03T17:08:11.954Z,100023.22
2022-09-03T17:10:58.827Z,100026.22
2022-09-03T17:13:45.660Z,100036.03
2022-09-03T17:16:37.878Z,100035.69
2022-09-03T17:19:48.598Z,100039.97
2022-09-03T17:22:57.231Z,100044.09
2022-09-03T17:25:40.181Z,100046.41
2022-09-03T17:28:39.238Z,100046.03
2022-09-03T17:31:51.754Z,100050.00
2022-09-03T17:34:36.528Z,100040.28
2022-09-03T17:37:28.791Z,100045.94
2022-09-03T17:40:10.455Z,100059.69
2022-09-03T17:43:09.922Z,100054.78
2022-09-03T17:46:15.824Z,100055.25
2022-09-03T17:48:49.684Z,100054.69
2022-09-03T17:51:40.080Z,100064.88
2022-09-03T17:54:21.996Z,100062.19
2022-09-03T17:57:13.898Z,100071.50
2022-09-03T18:00:08.110Z,100075.34
2022-09-03T18:03:15.193Z,100082.31
2022-09-03T18:06:20.002Z,100081.09
2022-09-03T18:09:25.621Z,100083.63
2022-09-03T18:12:28.917Z,100082.09
2022-09-03T18:15:17.900Z,100090.44
2022-09-03T18:18:10.645Z,100097.91
2022-09-03T18:21:31.534Z,100097.22
2022-09-03T18:24:45.569Z,100096.25
2022-09-03T18:27:47.584Z,100094.53
2022-09-03T18:30:34.121Z,100101.88
2022-09-03T18:33:26.928Z,100106.69
2022-09-03T18:36:14.201Z,100097.81
2022-09-03T18:39:02.126Z,100102.47
2022-09-03T18:41:54.166Z,100099.53
2022-09-03T18:45:20.149Z,100102.19
2022-09-03T18:48:24.082Z,100106.56
2022-09-03T18:51:55.167Z,100099.13
2022-09-03T18:55:08.190Z,100114.06
2022-09-03T18:58:40.339Z,100116.03
2022-09-03T19:01:58.814Z,100125.06
2022-09-03T19:04:54.396Z,100124.22
2022-09-03T19:08:08.426Z,100123.38
2022-09-03T19:11:12.326Z,100115.94
2022-09-03T19:14:00.827Z,100131.56
2022-09-03T19:17:18.662Z,100131.84
2022-09-03T19:20:36.924Z,100138.06
2022-09-03T19:23:32.049Z,100140.88
2022-09-03T19:26:52.340Z,100147.66
2022-09-03T19:30:28.997Z,100145.41
2022-09-03T19:33:25.509Z,100148.09
2022-09-03T19:36:24.032Z,100145.56
2022-09-03T19:39:15.869Z,100150.94
2022-09-03T19:42:18.010Z,100148.66
2022-09-03T19:45:31.229Z,100161.22
2022-09-03T19:48:28.784Z,100164.03
2022-09-03T19:51:52.213Z,100160.78
2022-09-03T19:54:48.784Z,100166.13
2022-09-03T20:00:39.336Z,100172.63
2022-09-03T20:03:26.808Z,100179.94
2022-09-03T20:06:12.575Z,100188.09
2022-09-03T20:09:13.943Z,100188.25
2022-09-03T20:12:10.244Z,100184.19
2022-09-03T20:14:41.712Z,100189.53
2022-09-03T20:17:21.813Z,100190.66
2022-09-03T20:20:39.763Z,100190.25
2022-09-03T20:23:38.110Z,100185.44
2022-09-03T20:26:33.353Z,100186.41
2022-09-03T20:29:44.870Z,100182.34
2022-09-03T20:32:29.064Z,100196.00
2022-09-03T20:35:28.798Z,100188.66
2022-09-03T20:38:28.975Z,100201.03
2022-09-03T20:41:18.854Z,100209.19
2022-09-03T20:43:57.955Z,100213.84
2022-09-03T20:46:57.230Z,100222.00
2022-09-03T20:49:54.285Z,100213.44
2022-09-03T20:53:19.085Z,100221.88
2022-09-03T20:55:53.940Z,100220.03
2022-09-03T20:59:09.064Z,100230.16
2022-09-03T21:01:59.244Z,100230.16
2022-09-03T21:05:23.524Z,100228.47
2022-09-03T21:08:27.398Z,100229.72
2022-09-03T21:11:08.264Z,100233.38
2022-09-03T21:13:57.789Z,100240.53
2022-09-03T21:16:56.868Z,100240.81
2022-09-03T21:20:13.166Z,100243.06
2022-09-03T21:23:06.869Z,100248.53
2022-09-03T21:25:47.492Z,100247.84
2022-09-03T21:28:24.547Z,100246.00
2022-09-03T21:30:58.713Z,100234.16
2022-09-03T21:33:59.511Z,100248.38
2022-09-03T21:36:34.586Z,100247.38
2022-09-03T21:39:18.284Z,100256.41
2022-09-03T21:42:17.586Z,100253.72
2022-09-03T21:48:13.412Z,100261.13
2022-09-03T21:51:06.729Z,100262.28
2022-09-03T21:54:03.933Z,100264.13
2022-09-03T21:56:55.349Z,100258.16
2022-09-03T22:00:15.707Z,100254.22
2022-09-03T22:02:47.840Z,100258.56
2022-09-03T22:05:18.297Z,100256.91
2022-09-03T22:08:18.046Z,100264.31
2022-09-03T22:11:08.755Z,100260.94
2022-09-03T22:13:53.643Z,100272.00
2022-09-03T22:16:46.395Z,100270.44
2022-09-03T22:19:15.429Z,100261.72
2022-09-03T22:22:03.818Z,100257.59
2022-09-03T22:24:58.925Z,100253.66
2022-09-03T22:28:03.651Z,100267.72
2022-09-03T22:31:06.450Z,100264.34
2022-09-03T22:34:07.852Z,100265.44
2022-09-03T22:36:48.419Z,100274.41
2022-09-03T22:39:41.537Z,100262.34
2022-09-03T22:42:26.478Z,100258.22
2022-09-03T22:45:07.584Z,100260.31
2022-09-03T22:51:03.285Z,100242.81
2022-09-03T22:53:52.432Z,100257.59
2022-09-03T22:56:25.851Z,100260.41
2022-09-03T22:59:13.200Z,100252.03
2022-09-03T23:02:05.076Z,100256.53
2022-09-03T23:05:12.223Z,100255.38
2022-09-03T23:07:51.343Z,100255.91
2022-09-03T23:10:29.476Z,100265.59
2022-09-03T23:13:34.868Z,100263.31
2022-09-03T23:16:13.550Z,100262.84
2022-09-03T23:18:45.380Z,100266.63
2022-09-03T23:21:35.906Z,100264.34
2022-09-03T23:24:17.544Z,100268.97
2022-09-03T23:26:58.167Z,100265.72
2022-09-03T23:29:46.978Z,100266.81
2022-09-03T23:32:15.119Z,100274.69
2022-09-03T23:34:52.458Z,100270.44
2022-09-03T23:38:04.848Z,100272.66
2022-09-03T23:40:50.501Z,100261.38
2022-09-03T23:43:50.960Z,100264.78
2022-09-03T23:46:33.177Z,100271.16
2022-09-03T23:49:19.645Z,100274.72
2022-09-03T23:52:04.228Z,100282.25
2022-09-03T23:54:58.972Z,100276.91
2022-09-03T23:57:40.839Z,100287.72
